createdAt,value
2023-04-02T00:02:23.278Z,98972.44
2023-04-02T00:05:19.696Z,98974.13
2023-04-02T00:07:53.765Z,98971.44
2023-04-02T00:10:31.092Z,98980.09
2023-04-02T00:13:10.107Z,98983.09
2023-04-02T00:15:38.305Z,98970.66
2023-04-02T00:18:05.726Z,98975.59
2023-04-02T00:20:36.476Z,98979.84
2023-04-02T00:23:03.805Z,98983.34
2023-04-02T00:25:35.279Z,98974.44
2023-04-02T00:28:03.697Z,98982.84
2023-04-02T00:30:31.034Z,98989.00
2023-04-02T00:32:58.351Z,99000.50
2023-04-02T00:35:27.328Z,98987.19
2023-04-02T00:37:54.833Z,98992.59
2023-04-02T00:40:28.547Z,99001.41
2023-04-02T00:42:58.053Z,98986.13
2023-04-02T00:45:29.966Z,98960.47
2023-04-02T00:47:58.686Z,98997.53
2023-04-02T00:50:34.879Z,98999.56
2023-04-02T00:53:05.358Z,99004.47
2023-04-02T00:55:40.012Z,99001.91
2023-04-02T00:58:27.728Z,99016.41
2023-04-02T01:00:54.978Z,99023.47
2023-04-02T01:03:28.730Z,99028.53
2023-04-02T01:06:01.664Z,99025.22
2023-04-02T01:08:41.906Z,99036.94
2023-04-02T01:11:34.478Z,99023.03
2023-04-02T01:14:23.106Z,99043.28
2023-04-02T01:16:50.415Z,99042.72
2023-04-02T01:19:45.145Z,99027.91
2023-04-02T01:22:30.888Z,99043.91
2023-04-02T01:24:58.298Z,99040.97
2023-04-02T01:27:39.786Z,99044.97
2023-04-02T01:30:07.784Z,99047.38
2023-04-02T01:32:35.116Z,99038.81
2023-04-02T01:35:02.548Z,99053.28
2023-04-02T01:37:36.825Z,99048.16
2023-04-02T01:40:17.262Z,99023.53
2023-04-02T01:43:26.910Z,99058.72
2023-04-02T01:45:54.148Z,99062.69
2023-04-02T01:48:24.812Z,99054.88
2023-04-02T01:50:54.965Z,99050.25
2023-04-02T01:53:23.192Z,99068.34
2023-04-02T01:55:52.500Z,99060.66
2023-04-02T01:58:25.611Z,99063.84
2023-04-02T02:01:03.613Z,99061.41
2023-04-02T02:03:31.962Z,99054.88
2023-04-02T02:05:59.616Z,99070.19
2023-04-02T02:08:52.108Z,99070.03
2023-04-02T02:11:21.663Z,99075.84
2023-04-02T02:14:01.342Z,99059.78
2023-04-02T02:16:29.500Z,99086.19
2023-04-02T02:18:59.313Z,99074.03
2023-04-02T02:21:38.251Z,99084.16
2023-04-02T02:24:07.894Z,99067.16
2023-04-02T02:26:35.929Z,99073.69
2023-04-02T02:29:03.530Z,99088.69
2023-04-02T02:31:31.234Z,99082.97
2023-04-02T02:34:24.660Z,99096.06
2023-04-02T02:37:16.360Z,99097.91
2023-04-02T02:39:44.741Z,99078.34
2023-04-02T02:42:14.712Z,99096.66
2023-04-02T02:44:44.668Z,99085.75
2023-04-02T02:47:19.710Z,99100.50
2023-04-02T02:49:50.039Z,99091.91
2023-04-02T02:52:26.186Z,99105.09
2023-04-02T02:55:09.772Z,99105.09
2023-04-02T02:58:00.917Z,99099.34
2023-04-02T03:00:33.743Z,99102.13
2023-04-02T03:03:02.659Z,99104.38
2023-04-02T03:05:31.992Z,99108.50
2023-04-02T03:08:06.675Z,99106.16
2023-04-02T03:10:37.226Z,99101.69
2023-04-02T03:13:26.901Z,99105.97
2023-04-02T03:16:21.087Z,99110.63
2023-04-02T03:19:13.502Z,99115.19
2023-04-02T03:21:49.484Z,99110.06
2023-04-02T03:24:27.189Z,99114.88
2023-04-02T03:26:58.420Z,99113.41
2023-04-02T03:29:29.737Z,99118.47
2023-04-02T03:32:00.342Z,99118.28
2023-04-02T03:34:33.702Z,99107.28
2023-04-02T03:37:09.075Z,99118.97
2023-04-02T03:39:51.249Z,99112.19
2023-04-02T03:42:25.283Z,99110.13
2023-04-02T03:45:00.658Z,99120.34
2023-04-02T03:47:36.870Z,99117.88
2023-04-02T03:50:16.068Z,99119.06
2023-04-02T03:52:43.766Z,99124.72
2023-04-02T03:55:17.457Z,99108.31
2023-04-02T03:58:00.888Z,99120.56
2023-04-02T04:00:44.724Z,99127.19
2023-04-02T04:03:13.557Z,99133.19
2023-04-02T04:05:53.536Z,99129.91
2023-04-02T04:08:29.319Z,99101.97
2023-04-02T04:10:57.973Z,99136.69
2023-04-02T04:13:45.662Z,99098.94
2023-04-02T04:16:16.882Z,99137.22
2023-04-02T04:18:56.988Z,99131.13
2023-04-02T04:21:37.770Z,99137.63
2023-04-02T04:24:22.914Z,99133.66
2023-04-02T04:27:10.082Z,99142.94
2023-04-02T04:29:58.291Z,99145.97
2023-04-02T04:32:52.771Z,99149.19
2023-04-02T04:35:32.943Z,99159.88
2023-04-02T04:38:12.195Z,99153.97
2023-04-02T04:40:52.446Z,99159.69
2023-04-02T04:43:32.610Z,99149.97
2023-04-02T04:46:22.407Z,99150.66
2023-04-02T04:48:54.510Z,99158.03
2023-04-02T04:51:45.587Z,99157.69
2023-04-02T04:54:14.660Z,99168.47
2023-04-02T04:56:51.417Z,99175.84
2023-04-02T04:59:24.446Z,99187.63
2023-04-02T05:01:57.824Z,99183.56
2023-04-02T05:04:34.229Z,99183.72
2023-04-02T05:07:23.721Z,99182.34
2023-04-02T05:10:15.747Z,99195.13
2023-04-02T05:13:01.862Z,99204.75
2023-04-02T05:15:34.432Z,99184.34
2023-04-02T05:18:26.410Z,99210.81
2023-04-02T05:21:14.177Z,99214.22
2023-04-02T05:23:54.216Z,99214.81
2023-04-02T05:26:24.858Z,99199.88
2023-04-02T05:29:25.070Z,99216.44
2023-04-02T05:32:01.254Z,99219.72
2023-04-02T05:34:31.649Z,99228.31
2023-04-02T05:36:59.748Z,99226.56
2023-04-02T05:39:27.870Z,99223.47
2023-04-02T05:42:07.455Z,99229.41
2023-04-02T05:45:09.537Z,99236.72
2023-04-02T05:47:41.149Z,99243.16
2023-04-02T05:50:30.737Z,99242.03
2023-04-02T05:53:11.160Z,99244.47
2023-04-02T05:56:03.836Z,99220.06
2023-04-02T05:58:36.765Z,99240.78
2023-04-02T06:01:45.837Z,99239.84
2023-04-02T06:04:27.587Z,99245.47
2023-04-02T06:07:03.628Z,99245.47
2023-04-02T06:09:45.134Z,99245.06
2023-04-02T06:12:18.181Z,99235.41
2023-04-02T06:14:45.899Z,99248.03
2023-04-02T06:17:18.653Z,99242.66
2023-04-02T06:19:47.874Z,99248.84
2023-04-02T06:22:25.226Z,99252.88
2023-04-02T06:25:00.734Z,99260.00
2023-04-02T06:27:28.432Z,99257.09
2023-04-02T06:30:00.200Z,99265.75
2023-04-02T06:32:30.708Z,99272.72
2023-04-02T06:34:58.313Z,99272.00
2023-04-02T06:37:30.450Z,99275.63
2023-04-02T06:40:17.872Z,99281.06
2023-04-02T06:42:46.152Z,99278.69
2023-04-02T06:45:23.898Z,99280.44
2023-04-02T06:48:14.885Z,99283.00
2023-04-02T06:50:49.192Z,99264.47
2023-04-02T06:53:23.699Z,99291.81
2023-04-02T06:56:01.319Z,99291.63
2023-04-02T06:58:30.738Z,99291.81
2023-04-02T07:00:58.038Z,99298.84
2023-04-02T07:03:32.490Z,99303.56
2023-04-02T07:06:06.978Z,99308.13
2023-04-02T07:08:35.465Z,99295.34
2023-04-02T07:11:02.807Z,99293.72
2023-04-02T07:13:30.122Z,99303.94
2023-04-02T07:15:57.484Z,99315.78
2023-04-02T07:18:27.901Z,99282.28
2023-04-02T07:20:56.116Z,99308.53
2023-04-02T07:23:24.099Z,99313.94
2023-04-02T07:25:52.836Z,99331.66
2023-04-02T07:28:22.395Z,99330.00
2023-04-02T07:30:50.288Z,99336.34
2023-04-02T07:33:18.983Z,99338.50
2023-04-02T07:35:46.640Z,99337.84
2023-04-02T07:38:13.985Z,99334.19
2023-04-02T07:40:41.403Z,99348.03
2023-04-02T07:43:08.756Z,99345.44
2023-04-02T07:45:36.404Z,99350.06
2023-04-02T07:48:07.454Z,99350.00
2023-04-02T07:50:34.834Z,99347.13
2023-04-02T07:53:02.155Z,99354.88
2023-04-02T07:55:29.425Z,99350.66
2023-04-02T07:57:58.496Z,99353.75
2023-04-02T08:00:26.742Z,99348.59
2023-04-02T08:02:54.172Z,99340.06
2023-04-02T08:05:22.572Z,99354.50
2023-04-02T08:07:54.850Z,99350.53
2023-04-02T08:10:22.253Z,99359.00
2023-04-02T08:12:49.855Z,99358.28
2023-04-02T08:15:17.210Z,99360.78
2023-04-02T08:17:44.555Z,99366.72
2023-04-02T08:20:22.310Z,99353.22
2023-04-02T08:22:49.772Z,99367.09
2023-04-02T08:25:17.294Z,99369.56
2023-04-02T08:27:47.215Z,99370.53
2023-04-02T08:30:14.739Z,99369.53
2023-04-02T08:32:42.133Z,99364.50
2023-04-02T08:35:11.076Z,99373.38
2023-04-02T08:37:38.353Z,99367.16
2023-04-02T08:40:07.486Z,99374.25
2023-04-02T08:42:51.975Z,99359.31
2023-04-02T08:45:24.957Z,99387.41
2023-04-02T08:47:55.529Z,99369.25
2023-04-02T08:50:35.637Z,99388.03
2023-04-02T08:53:05.149Z,99381.91
2023-04-02T08:56:05.753Z,99392.81
2023-04-02T08:58:33.185Z,99387.97
2023-04-02T09:01:01.930Z,99386.16
2023-04-02T09:03:32.526Z,99382.28
2023-04-02T09:05:59.857Z,99395.00
2023-04-02T09:08:27.492Z,99386.22
2023-04-02T09:10:55.903Z,99395.66
2023-04-02T09:13:24.687Z,99394.81
2023-04-02T09:15:56.517Z,99412.97
2023-04-02T09:18:23.852Z,99406.75
2023-04-02T09:20:51.217Z,99403.81
2023-04-02T09:23:20.137Z,99392.91
2023-04-02T09:26:03.012Z,99393.41
2023-04-02T09:28:31.756Z,99395.00
2023-04-02T09:31:18.455Z,99352.50
2023-04-02T09:33:47.153Z,99398.06
2023-04-02T09:36:37.141Z,99399.47
2023-04-02T09:39:07.028Z,99400.34
2023-04-02T09:41:36.918Z,99393.56
2023-04-02T09:44:24.338Z,99406.06
2023-04-02T09:46:54.523Z,99410.78
2023-04-02T09:49:23.751Z,99411.53
2023-04-02T09:52:06.146Z,99412.44
2023-04-02T09:54:33.488Z,99410.00
2023-04-02T09:57:04.618Z,99419.50
2023-04-02T09:59:31.900Z,99410.06
2023-04-02T10:02:01.533Z,99418.09
2023-04-02T10:04:48.137Z,99411.31
2023-04-02T10:07:38.936Z,99415.19
2023-04-02T10:10:27.161Z,99419.50
2023-04-02T10:12:59.415Z,99418.38
2023-04-02T10:15:58.986Z,99389.47
2023-04-02T10:18:31.084Z,99418.09
2023-04-02T10:20:58.481Z,99402.19
2023-04-02T10:23:27.820Z,99397.47
2023-04-02T10:26:09.105Z,99406.97
2023-04-02T10:28:42.574Z,99417.38
2023-04-02T10:31:22.895Z,99418.22
2023-04-02T10:33:51.837Z,99405.44
2023-04-02T10:36:31.675Z,99408.56
2023-04-02T10:39:34.453Z,99414.91
2023-04-02T10:42:01.803Z,99413.34
2023-04-02T10:44:32.066Z,99419.50
2023-04-02T10:47:18.309Z,99408.47
2023-04-02T10:49:54.925Z,99413.22
2023-04-02T10:52:28.927Z,99416.78
2023-04-02T10:54:58.810Z,99394.53
2023-04-02T10:57:37.974Z,99397.72
2023-04-02T11:00:11.456Z,99411.44
2023-04-02T11:02:44.132Z,99402.53
2023-04-02T11:05:36.375Z,99418.91
2023-04-02T11:08:18.475Z,99420.47
2023-04-02T11:10:59.298Z,99418.78
2023-04-02T11:13:52.613Z,99418.53
2023-04-02T11:16:20.246Z,99418.91
2023-04-02T11:19:15.873Z,99422.81
2023-04-02T11:21:58.693Z,99415.06
2023-04-02T11:24:37.309Z,99415.06
2023-04-02T11:27:11.229Z,99403.41
2023-04-02T11:30:18.204Z,99411.19
2023-04-02T11:32:49.327Z,99415.81
2023-04-02T11:35:32.048Z,99406.13
2023-04-02T11:38:23.120Z,99408.84
2023-04-02T11:40:57.584Z,99405.72
2023-04-02T11:43:34.213Z,99406.13
2023-04-02T11:46:16.700Z,99404.59
2023-04-02T11:48:43.971Z,99401.09
2023-04-02T11:51:23.141Z,99399.53
2023-04-02T11:53:51.606Z,99400.63
2023-04-02T11:56:32.364Z,99394.75
2023-04-02T11:59:06.443Z,99382.44
2023-04-02T12:01:58.217Z,99391.75
2023-04-02T12:04:46.122Z,99382.41
2023-04-02T12:07:17.560Z,99391.34
2023-04-02T12:09:51.188Z,99382.44
2023-04-02T12:12:24.363Z,99387.84
2023-04-02T12:14:52.742Z,99392.09
2023-04-02T12:17:28.625Z,99387.84
2023-04-02T12:20:09.665Z,99397.56
2023-04-02T12:22:48.037Z,99392.50
2023-04-02T12:25:31.777Z,99390.56
2023-04-02T12:28:05.225Z,99386.66
2023-04-02T12:30:32.601Z,99380.78
2023-04-02T12:33:20.428Z,99380.06
2023-04-02T12:35:48.579Z,99370.28
2023-04-02T12:38:24.581Z,99376.03
2023-04-02T12:40:56.868Z,99358.16
2023-04-02T12:43:31.140Z,99357.84
2023-04-02T12:46:00.425Z,99360.16
2023-04-02T12:48:27.994Z,99361.19
2023-04-02T12:50:55.692Z,99349.34
2023-04-02T12:53:35.151Z,99358.63
2023-04-02T12:56:02.531Z,99365.16
2023-04-02T12:58:29.688Z,99357.69
2023-04-02T13:01:23.668Z,99358.56
2023-04-02T13:04:01.056Z,99362.22
2023-04-02T13:06:28.358Z,99350.44
2023-04-02T13:08:55.611Z,99341.25
2023-04-02T13:11:23.171Z,99341.13
2023-04-02T13:13:50.477Z,99351.44
2023-04-02T13:16:17.873Z,99347.59
2023-04-02T13:18:46.514Z,99340.03
2023-04-02T13:21:16.770Z,99343.19
2023-04-02T13:23:44.253Z,99333.66
2023-04-02T13:26:18.769Z,99333.06
2023-04-02T13:28:58.967Z,99327.09
2023-04-02T13:31:26.545Z,99349.34
2023-04-02T13:33:53.834Z,99344.59
2023-04-02T13:36:21.234Z,99336.81
2023-04-02T13:38:48.471Z,99345.06
2023-04-02T13:41:26.516Z,99339.03
2023-04-02T13:43:54.434Z,99346.06
2023-04-02T13:46:23.541Z,99347.06
2023-04-02T13:48:51.427Z,99353.84
2023-04-02T13:51:19.306Z,99347.72
2023-04-02T13:53:47.625Z,99338.13
2023-04-02T13:56:14.933Z,99341.00
2023-04-02T13:58:42.195Z,99345.31
2023-04-02T14:01:09.478Z,99351.44
2023-04-02T14:03:36.856Z,99336.41
2023-04-02T14:06:10.229Z,99354.03
2023-04-02T14:08:59.671Z,99365.03
2023-04-02T14:11:47.516Z,99377.63
2023-04-02T14:14:36.345Z,99396.03
2023-04-02T14:17:29.598Z,99415.19
2023-04-02T14:20:12.115Z,99390.19
2023-04-02T14:22:52.017Z,99409.69
2023-04-02T14:25:57.709Z,99408.69
2023-04-02T14:28:29.940Z,99401.44
2023-04-02T14:31:18.953Z,99416.03
2023-04-02T14:34:03.046Z,99415.72
2023-04-02T14:36:58.712Z,99380.66
2023-04-02T14:39:34.841Z,99424.56
2023-04-02T14:42:04.602Z,99435.72
2023-04-02T14:44:35.276Z,99421.47
2023-04-02T14:47:11.547Z,99434.44
2023-04-02T14:49:40.053Z,99460.41
2023-04-02T14:52:16.298Z,99463.16
2023-04-02T14:54:43.423Z,99472.19
2023-04-02T14:57:10.605Z,99479.72
2023-04-02T14:59:44.637Z,99475.91
2023-04-02T15:02:30.870Z,99481.88
2023-04-02T15:05:14.720Z,99480.72
2023-04-02T15:08:04.263Z,99480.69
2023-04-02T15:10:37.138Z,99490.75
2023-04-02T15:13:06.752Z,99495.56
2023-04-02T15:15:46.840Z,99501.50
2023-04-02T15:18:15.910Z,99505.78
2023-04-02T15:21:16.674Z,99481.34
2023-04-02T15:23:59.159Z,99499.13
2023-04-02T15:26:27.127Z,99521.03
2023-04-02T15:29:25.927Z,99501.81
2023-04-02T15:32:01.292Z,99529.66
2023-04-02T15:34:37.568Z,99538.56
2023-04-02T15:37:13.151Z,99538.50
2023-04-02T15:40:03.197Z,99536.84
2023-04-02T15:42:39.215Z,99533.88
2023-04-02T15:45:19.403Z,99522.56
2023-04-02T15:48:17.407Z,99539.09
2023-04-02T15:50:50.396Z,99547.28
2023-04-02T15:53:30.155Z,99545.88
2023-04-02T15:56:38.393Z,99545.97
2023-04-02T15:59:28.827Z,99555.38
2023-04-02T16:02:38.572Z,99557.97
2023-04-02T16:05:47.494Z,99562.59
2023-04-02T16:08:38.918Z,99562.78
2023-04-02T16:11:12.524Z,99570.06
2023-04-02T16:13:40.679Z,99569.66
2023-04-02T16:16:19.089Z,99581.56
2023-04-02T16:19:15.972Z,99603.41
2023-04-02T16:21:49.293Z,99597.22
2023-04-02T16:24:16.593Z,99613.34
2023-04-02T16:27:17.736Z,99620.91
2023-04-02T16:30:03.601Z,99626.81
2023-04-02T16:32:48.229Z,99623.41
2023-04-02T16:35:40.750Z,99632.44
2023-04-02T16:38:24.398Z,99636.94
2023-04-02T16:41:07.751Z,99641.84
2023-04-02T16:43:54.754Z,99647.84
2023-04-02T16:46:38.789Z,99646.91
2023-04-02T16:49:19.684Z,99648.66
2023-04-02T16:52:02.210Z,99656.19
2023-04-02T16:54:38.610Z,99661.59
2023-04-02T16:57:21.020Z,99665.28
2023-04-02T17:00:06.612Z,99664.72
2023-04-02T17:02:42.179Z,99670.28
2023-04-02T17:05:15.553Z,99676.13
2023-04-02T17:08:01.720Z,99668.75
2023-04-02T17:10:33.516Z,99682.44
2023-04-02T17:13:13.030Z,99696.59
2023-04-02T17:15:40.380Z,99690.06
2023-04-02T17:18:16.489Z,99689.97
2023-04-02T17:20:43.760Z,99717.00
2023-04-02T17:23:14.536Z,99712.53
2023-04-02T17:25:48.348Z,99714.75
2023-04-02T17:28:17.175Z,99732.72
2023-04-02T17:30:52.611Z,99729.88
2023-04-02T17:33:22.021Z,99732.25
2023-04-02T17:35:58.161Z,99725.72
2023-04-02T17:38:34.656Z,99736.44
2023-04-02T17:41:15.155Z,99739.81
2023-04-02T17:43:57.435Z,99750.34
2023-04-02T17:46:39.402Z,99737.06
2023-04-02T17:49:12.557Z,99756.16
2023-04-02T17:51:42.276Z,99752.56
2023-04-02T17:54:09.468Z,99755.06
2023-04-02T17:56:42.355Z,99757.19
2023-04-02T17:59:46.070Z,99765.78
2023-04-02T18:02:23.885Z,99756.66
2023-04-02T18:05:12.149Z,99765.06
2023-04-02T18:07:57.987Z,99766.75
2023-04-02T18:10:33.771Z,99766.28
2023-04-02T18:13:08.556Z,99783.56
2023-04-02T18:15:38.734Z,99793.66
2023-04-02T18:18:39.341Z,99793.22
2023-04-02T18:21:12.403Z,99782.03
2023-04-02T18:23:59.118Z,99797.75
2023-04-02T18:26:39.375Z,99801.66
2023-04-02T18:29:43.604Z,99795.28
2023-04-02T18:32:32.326Z,99795.28
2023-04-02T18:35:02.329Z,99808.91
2023-04-02T18:37:54.113Z,99813.88
2023-04-02T18:40:33.243Z,99826.34
2023-04-02T18:43:08.735Z,99801.44
2023-04-02T18:45:57.524Z,99829.25
2023-04-02T18:48:49.579Z,99840.91
2023-04-02T18:51:19.958Z,99834.09
2023-04-02T18:53:47.562Z,99838.34
2023-04-02T18:56:17.266Z,99844.91
2023-04-02T18:58:58.111Z,99840.00
2023-04-02T19:01:34.104Z,99835.78
2023-04-02T19:04:17.306Z,99850.19
2023-04-02T19:06:46.708Z,99817.81
2023-04-02T19:09:15.257Z,99854.66
2023-04-02T19:11:42.655Z,99851.22
2023-04-02T19:14:14.381Z,99856.00
2023-04-02T19:17:01.584Z,99844.16
2023-04-02T19:19:35.810Z,99861.75
2023-04-02T19:22:18.269Z,99875.69
2023-04-02T19:24:56.929Z,99869.34
2023-04-02T19:27:37.029Z,99868.69
2023-04-02T19:30:28.786Z,99872.28
2023-04-02T19:33:13.886Z,99873.66
2023-04-02T19:35:46.897Z,99857.22
2023-04-02T19:38:39.342Z,99877.69
2023-04-02T19:41:27.310Z,99878.47
2023-04-02T19:43:55.010Z,99876.16
2023-04-02T19:46:23.305Z,99883.41
2023-04-02T19:48:57.384Z,99871.75
2023-04-02T19:51:24.675Z,99881.16
2023-04-02T19:53:51.935Z,99894.22
2023-04-02T19:56:19.258Z,99898.16
2023-04-02T19:58:46.596Z,99907.22
2023-04-02T20:01:13.904Z,99899.84
2023-04-02T20:03:41.263Z,99890.72
2023-04-02T20:06:08.573Z,99896.81
2023-04-02T20:08:38.692Z,99901.22
2023-04-02T20:11:06.356Z,99903.91
2023-04-02T20:13:33.999Z,99895.13
2023-04-02T20:16:02.049Z,99909.44
2023-04-02T20:18:29.834Z,99919.25
2023-04-02T20:20:57.121Z,99914.94
2023-04-02T20:23:24.975Z,99919.06
2023-04-02T20:25:53.208Z,99899.00
2023-04-02T20:28:21.326Z,99899.59
2023-04-02T20:30:50.281Z,99918.13
2023-04-02T20:33:18.606Z,99911.63
2023-04-02T20:35:46.067Z,99914.78
2023-04-02T20:38:13.440Z,99917.53
2023-04-02T20:40:41.640Z,99919.06
2023-04-02T20:43:09.615Z,99918.13
2023-04-02T20:45:37.356Z,99918.72
2023-04-02T20:48:04.928Z,99923.34
2023-04-02T20:50:32.581Z,99925.38
2023-04-02T20:52:59.864Z,99946.25
2023-04-02T20:55:27.098Z,99925.91
2023-04-02T20:57:54.607Z,99950.53
2023-04-02T21:00:22.620Z,99954.63
2023-04-02T21:02:49.974Z,99949.09
2023-04-02T21:05:17.285Z,99945.28
2023-04-02T21:07:44.591Z,99947.72
2023-04-02T21:10:11.834Z,99955.91
2023-04-02T21:12:39.158Z,99942.50
2023-04-02T21:15:07.039Z,99961.28
2023-04-02T21:17:34.321Z,99960.03
2023-04-02T21:20:02.137Z,99942.38
2023-04-02T21:22:29.402Z,99957.34
2023-04-02T21:24:56.670Z,99946.94
2023-04-02T21:27:26.055Z,99948.03
2023-04-02T21:29:53.493Z,99955.63
2023-04-02T21:32:21.948Z,99966.56
2023-04-02T21:34:49.571Z,99967.97
2023-04-02T21:37:16.808Z,99965.91
2023-04-02T21:39:44.028Z,99956.78
2023-04-02T21:42:11.727Z,99965.44
2023-04-02T21:44:38.981Z,99962.91
2023-04-02T21:47:06.329Z,99958.50
2023-04-02T21:49:33.801Z,99961.63
2023-04-02T21:52:01.155Z,99969.06
2023-04-02T21:54:29.390Z,99967.84
2023-04-02T21:56:56.927Z,99967.34
2023-04-02T21:59:24.336Z,99969.88
2023-04-02T22:01:52.262Z,99973.56
2023-04-02T22:04:21.346Z,99978.59
2023-04-02T22:06:48.821Z,99975.47
2023-04-02T22:09:17.937Z,99975.44
2023-04-02T22:11:47.004Z,99957.31
2023-04-02T22:14:14.394Z,99968.97
2023-04-02T22:16:41.961Z,99960.28
2023-04-02T22:19:11.793Z,99978.59
2023-04-02T22:21:39.080Z,99966.75
2023-04-02T22:24:09.072Z,99967.41
2023-04-02T22:26:36.522Z,99985.72
2023-04-02T22:29:04.501Z,99980.81
2023-04-02T22:31:33.350Z,99979.84
2023-04-02T22:34:01.165Z,99983.22
2023-04-02T22:36:28.695Z,99984.31
2023-04-02T22:38:56.822Z,99991.25
2023-04-02T22:41:28.374Z,99967.13
2023-04-02T22:43:56.276Z,99983.53
2023-04-02T22:46:23.838Z,99995.19
2023-04-02T22:48:51.209Z,99987.97
2023-04-02T22:51:19.938Z,99990.31
2023-04-02T22:53:47.413Z,99992.22
2023-04-02T22:56:22.690Z,99992.03
2023-04-02T22:58:50.001Z,99989.84
2023-04-02T23:01:21.385Z,99988.59
2023-04-02T23:03:48.952Z,99973.47
2023-04-02T23:06:17.198Z,99989.53
2023-04-02T23:08:44.692Z,99972.63
2023-04-02T23:11:22.894Z,99976.59
2023-04-02T23:13:51.329Z,99981.50
2023-04-02T23:16:18.855Z,99987.66
2023-04-02T23:18:49.238Z,99994.13
2023-04-02T23:21:17.192Z,99978.66
2023-04-02T23:23:44.570Z,99993.81
2023-04-02T23:26:13.883Z,100000.75
2023-04-02T23:28:41.232Z,99986.56
2023-04-02T23:31:11.061Z,99990.19
2023-04-02T23:33:38.353Z,99989.41
2023-04-02T23:36:32.546Z,99974.25
2023-04-02T23:39:01.683Z,99974.72
2023-04-02T23:41:29.700Z,99981.81
2023-04-02T23:43:57.156Z,99967.31
2023-04-02T23:46:24.776Z,99971.25
2023-04-02T23:48:52.403Z,99984.19
2023-04-02T23:51:19.872Z,99988.00
2023-04-02T23:53:47.735Z,99980.56
2023-04-02T23:56:15.404Z,99982.28
2023-04-02T23:58:42.709Z,99991.75
